sensor_id;sensor_type;location;lat;lon;timestamp;temperature;humidity
10903;DHT22;5504;47.312;11.060;2023-04-03T00:01:29;7.70;90.70
10903;DHT22;5504;47.312;11.060;2023-04-03T00:03:55;7.80;90.30
10903;DHT22;5504;47.312;11.060;2023-04-03T00:06:22;7.90;90.60
10903;DHT22;5504;47.312;11.060;2023-04-03T00:08:48;7.90;90.70
10903;DHT22;5504;47.312;11.060;2023-04-03T00:11:14;7.90;90.10
10903;DHT22;5504;47.312;11.060;2023-04-03T00:13:40;7.90;89.70
10903;DHT22;5504;47.312;11.060;2023-04-03T00:16:08;7.60;89.50
10903;DHT22;5504;47.312;11.060;2023-04-03T00:18:33;7.70;89.80
10903;DHT22;5504;47.312;11.060;2023-04-03T00:20:59;7.70;90.40
10903;DHT22;5504;47.312;11.060;2023-04-03T00:23:26;6.90;90.10
10903;DHT22;5504;47.312;11.060;2023-04-03T00:25:53;7.10;91.00
10903;DHT22;5504;47.312;11.060;2023-04-03T00:28:19;7.30;90.60
10903;DHT22;5504;47.312;11.060;2023-04-03T00:30:45;7.50;90.60
10903;DHT22;5504;47.312;11.060;2023-04-03T00:33:13;7.40;90.90
10903;DHT22;5504;47.312;11.060;2023-04-03T00:35:39;7.50;91.00
10903;DHT22;5504;47.312;11.060;2023-04-03T00:38:05;7.40;89.10
10903;DHT22;5504;47.312;11.060;2023-04-03T00:40:36;7.20;89.60
10903;DHT22;5504;47.312;11.060;2023-04-03T00:43:11;7.20;88.60
10903;DHT22;5504;47.312;11.060;2023-04-03T00:45:46;7.30;89.50
10903;DHT22;5504;47.312;11.060;2023-04-03T00:48:33;7.10;88.40
10903;DHT22;5504;47.312;11.060;2023-04-03T00:51:01;7.20;88.60
10903;DHT22;5504;47.312;11.060;2023-04-03T00:53:37;7.40;88.20
10903;DHT22;5504;47.312;11.060;2023-04-03T00:56:06;7.50;90.00
10903;DHT22;5504;47.312;11.060;2023-04-03T00:58:40;7.50;91.20
10903;DHT22;5504;47.312;11.060;2023-04-03T01:01:11;7.30;90.90
10903;DHT22;5504;47.312;11.060;2023-04-03T01:03:38;7.30;91.40
10903;DHT22;5504;47.312;11.060;2023-04-03T01:06:03;7.40;91.50
10903;DHT22;5504;47.312;11.060;2023-04-03T01:08:30;7.40;91.90
10903;DHT22;5504;47.312;11.060;2023-04-03T01:10:56;7.40;92.00
10903;DHT22;5504;47.312;11.060;2023-04-03T01:13:26;7.20;92.10
10903;DHT22;5504;47.312;11.060;2023-04-03T01:15:53;7.20;92.30
10903;DHT22;5504;47.312;11.060;2023-04-03T01:18:19;7.30;92.60
10903;DHT22;5504;47.312;11.060;2023-04-03T01:24:28;7.40;92.00
10903;DHT22;5504;47.312;11.060;2023-04-03T01:26:50;7.40;92.00
10903;DHT22;5504;47.312;11.060;2023-04-03T01:29:16;7.50;92.10
10903;DHT22;5504;47.312;11.060;2023-04-03T01:31:48;7.50;91.50
10903;DHT22;5504;47.312;11.060;2023-04-03T01:34:14;7.50;91.40
10903;DHT22;5504;47.312;11.060;2023-04-03T01:36:40;6.70;91.70
10903;DHT22;5504;47.312;11.060;2023-04-03T01:39:06;6.40;92.90
10903;DHT22;5504;47.312;11.060;2023-04-03T01:41:32;6.60;93.00
10903;DHT22;5504;47.312;11.060;2023-04-03T01:43:58;6.70;93.20
10903;DHT22;5504;47.312;11.060;2023-04-03T01:46:23;6.70;93.40
10903;DHT22;5504;47.312;11.060;2023-04-03T01:48:50;6.80;93.40
10903;DHT22;5504;47.312;11.060;2023-04-03T01:51:16;6.90;93.30
10903;DHT22;5504;47.312;11.060;2023-04-03T01:53:42;6.90;92.70
10903;DHT22;5504;47.312;11.060;2023-04-03T01:56:08;6.80;92.70
10903;DHT22;5504;47.312;11.060;2023-04-03T01:58:34;6.80;92.70
10903;DHT22;5504;47.312;11.060;2023-04-03T02:01:00;7.00;92.90
10903;DHT22;5504;47.312;11.060;2023-04-03T02:03:26;7.10;92.90
10903;DHT22;5504;47.312;11.060;2023-04-03T02:05:52;7.00;92.60
10903;DHT22;5504;47.312;11.060;2023-04-03T02:08:18;6.80;92.80
10903;DHT22;5504;47.312;11.060;2023-04-03T02:10:46;6.90;93.10
10903;DHT22;5504;47.312;11.060;2023-04-03T02:13:12;7.00;92.80
10903;DHT22;5504;47.312;11.060;2023-04-03T02:15:39;7.00;92.50
10903;DHT22;5504;47.312;11.060;2023-04-03T02:18:05;6.40;90.30
10903;DHT22;5504;47.312;11.060;2023-04-03T02:20:31;6.50;90.70
10903;DHT22;5504;47.312;11.060;2023-04-03T02:22:57;6.60;90.70
10903;DHT22;5504;47.312;11.060;2023-04-03T02:25:22;6.70;90.40
10903;DHT22;5504;47.312;11.060;2023-04-03T02:27:48;6.60;90.20
10903;DHT22;5504;47.312;11.060;2023-04-03T02:30:14;6.70;90.30
10903;DHT22;5504;47.312;11.060;2023-04-03T02:32:40;6.60;91.30
10903;DHT22;5504;47.312;11.060;2023-04-03T02:35:06;6.50;91.30
10903;DHT22;5504;47.312;11.060;2023-04-03T02:37:33;6.40;90.70
10903;DHT22;5504;47.312;11.060;2023-04-03T02:39:58;6.50;90.50
10903;DHT22;5504;47.312;11.060;2023-04-03T02:42:24;6.50;90.30
10903;DHT22;5504;47.312;11.060;2023-04-03T02:44:50;6.50;90.50
10903;DHT22;5504;47.312;11.060;2023-04-03T02:47:16;6.50;90.70
10903;DHT22;5504;47.312;11.060;2023-04-03T02:49:41;6.30;90.60
10903;DHT22;5504;47.312;11.060;2023-04-03T02:52:10;6.30;91.10
10903;DHT22;5504;47.312;11.060;2023-04-03T02:54:36;6.50;91.30
10903;DHT22;5504;47.312;11.060;2023-04-03T02:57:01;6.20;91.60
10903;DHT22;5504;47.312;11.060;2023-04-03T02:59:27;6.40;91.90
10903;DHT22;5504;47.312;11.060;2023-04-03T03:01:53;6.50;91.40
10903;DHT22;5504;47.312;11.060;2023-04-03T03:04:19;6.40;91.50
10903;DHT22;5504;47.312;11.060;2023-04-03T03:06:44;6.40;91.70
10903;DHT22;5504;47.312;11.060;2023-04-03T03:09:12;6.40;91.80
10903;DHT22;5504;47.312;11.060;2023-04-03T03:11:39;6.40;92.10
10903;DHT22;5504;47.312;11.060;2023-04-03T03:14:05;6.40;91.70
10903;DHT22;5504;47.312;11.060;2023-04-03T03:16:30;6.40;91.70
10903;DHT22;5504;47.312;11.060;2023-04-03T03:18:56;6.40;91.70
10903;DHT22;5504;47.312;11.060;2023-04-03T03:21:22;6.30;91.30
10903;DHT22;5504;47.312;11.060;2023-04-03T03:23:47;6.30;90.80
10903;DHT22;5504;47.312;11.060;2023-04-03T03:26:13;6.40;91.00
10903;DHT22;5504;47.312;11.060;2023-04-03T03:28:39;6.40;90.80
10903;DHT22;5504;47.312;11.060;2023-04-03T03:31:06;6.30;90.90
10903;DHT22;5504;47.312;11.060;2023-04-03T03:33:32;6.30;91.10
10903;DHT22;5504;47.312;11.060;2023-04-03T03:35:57;6.30;90.50
10903;DHT22;5504;47.312;11.060;2023-04-03T03:38:23;6.30;90.20
10903;DHT22;5504;47.312;11.060;2023-04-03T03:40:50;6.20;90.10
10903;DHT22;5504;47.312;11.060;2023-04-03T03:43:17;6.30;90.00
10903;DHT22;5504;47.312;11.060;2023-04-03T03:45:43;6.10;89.70
10903;DHT22;5504;47.312;11.060;2023-04-03T03:48:09;5.50;88.90
10903;DHT22;5504;47.312;11.060;2023-04-03T03:50:35;5.60;89.40
10903;DHT22;5504;47.312;11.060;2023-04-03T03:53:01;5.80;89.50
10903;DHT22;5504;47.312;11.060;2023-04-03T03:55:27;5.90;89.00
10903;DHT22;5504;47.312;11.060;2023-04-03T03:57:52;6.00;89.10
10903;DHT22;5504;47.312;11.060;2023-04-03T04:00:18;6.20;88.90
10903;DHT22;5504;47.312;11.060;2023-04-03T04:02:44;6.20;89.30
10903;DHT22;5504;47.312;11.060;2023-04-03T04:05:10;6.40;88.70
10903;DHT22;5504;47.312;11.060;2023-04-03T04:07:36;6.40;88.80
10903;DHT22;5504;47.312;11.060;2023-04-03T04:10:02;6.30;87.10
10903;DHT22;5504;47.312;11.060;2023-04-03T04:12:27;6.20;85.90
10903;DHT22;5504;47.312;11.060;2023-04-03T04:14:53;5.90;85.00
10903;DHT22;5504;47.312;11.060;2023-04-03T04:17:19;5.80;85.10
10903;DHT22;5504;47.312;11.060;2023-04-03T04:19:45;5.90;85.40
10903;DHT22;5504;47.312;11.060;2023-04-03T04:22:10;5.90;84.90
10903;DHT22;5504;47.312;11.060;2023-04-03T04:24:37;5.90;84.90
10903;DHT22;5504;47.312;11.060;2023-04-03T04:27:02;5.60;85.20
10903;DHT22;5504;47.312;11.060;2023-04-03T04:29:28;5.70;86.30
10903;DHT22;5504;47.312;11.060;2023-04-03T04:31:54;5.80;86.40
10903;DHT22;5504;47.312;11.060;2023-04-03T04:34:20;5.70;86.00
10903;DHT22;5504;47.312;11.060;2023-04-03T04:36:46;5.40;84.90
10903;DHT22;5504;47.312;11.060;2023-04-03T04:39:12;5.50;86.30
10903;DHT22;5504;47.312;11.060;2023-04-03T04:41:37;5.70;86.60
10903;DHT22;5504;47.312;11.060;2023-04-03T04:44:03;5.70;86.50
10903;DHT22;5504;47.312;11.060;2023-04-03T04:46:29;4.90;86.20
10903;DHT22;5504;47.312;11.060;2023-04-03T04:48:54;5.20;87.00
10903;DHT22;5504;47.312;11.060;2023-04-03T04:51:20;5.60;86.30
10903;DHT22;5504;47.312;11.060;2023-04-03T04:53:46;5.80;84.70
10903;DHT22;5504;47.312;11.060;2023-04-03T04:56:11;5.80;84.40
10903;DHT22;5504;47.312;11.060;2023-04-03T04:58:37;5.80;85.00
10903;DHT22;5504;47.312;11.060;2023-04-03T05:01:08;5.80;84.40
10903;DHT22;5504;47.312;11.060;2023-04-03T05:03:34;5.10;84.70
10903;DHT22;5504;47.312;11.060;2023-04-03T05:05:59;4.90;88.10
10903;DHT22;5504;47.312;11.060;2023-04-03T05:08:25;5.20;87.70
10903;DHT22;5504;47.312;11.060;2023-04-03T05:10:51;5.50;86.90
10903;DHT22;5504;47.312;11.060;2023-04-03T05:13:18;5.70;87.20
10903;DHT22;5504;47.312;11.060;2023-04-03T05:15:45;5.90;87.40
10903;DHT22;5504;47.312;11.060;2023-04-03T05:18:11;5.60;86.90
10903;DHT22;5504;47.312;11.060;2023-04-03T05:20:37;5.60;87.20
10903;DHT22;5504;47.312;11.060;2023-04-03T05:23:03;5.50;87.80
10903;DHT22;5504;47.312;11.060;2023-04-03T05:25:29;5.50;89.10
10903;DHT22;5504;47.312;11.060;2023-04-03T05:27:55;5.70;89.40
10903;DHT22;5504;47.312;11.060;2023-04-03T05:30:21;5.80;89.70
10903;DHT22;5504;47.312;11.060;2023-04-03T05:32:47;5.90;89.50
10903;DHT22;5504;47.312;11.060;2023-04-03T05:35:13;5.70;86.50
10903;DHT22;5504;47.312;11.060;2023-04-03T05:37:39;4.90;86.90
10903;DHT22;5504;47.312;11.060;2023-04-03T05:40:05;5.20;88.70
10903;DHT22;5504;47.312;11.060;2023-04-03T05:42:31;5.60;88.50
10903;DHT22;5504;47.312;11.060;2023-04-03T05:44:57;5.70;88.00
10903;DHT22;5504;47.312;11.060;2023-04-03T05:47:23;5.90;87.60
10903;DHT22;5504;47.312;11.060;2023-04-03T05:49:49;5.90;86.90
10903;DHT22;5504;47.312;11.060;2023-04-03T05:52:27;5.90;86.00
10903;DHT22;5504;47.312;11.060;2023-04-03T05:54:53;5.80;84.00
10903;DHT22;5504;47.312;11.060;2023-04-03T05:57:20;5.80;85.00
10903;DHT22;5504;47.312;11.060;2023-04-03T05:59:47;5.90;85.80
10903;DHT22;5504;47.312;11.060;2023-04-03T06:02:20;5.90;86.60
10903;DHT22;5504;47.312;11.060;2023-04-03T06:04:47;6.10;86.00
10903;DHT22;5504;47.312;11.060;2023-04-03T06:07:21;5.60;85.20
10903;DHT22;5504;47.312;11.060;2023-04-03T06:09:48;5.70;85.40
10903;DHT22;5504;47.312;11.060;2023-04-03T06:12:14;5.80;86.00
10903;DHT22;5504;47.312;11.060;2023-04-03T06:14:40;6.00;86.40
10903;DHT22;5504;47.312;11.060;2023-04-03T06:17:06;6.10;85.80
10903;DHT22;5504;47.312;11.060;2023-04-03T06:19:34;6.20;85.90
10903;DHT22;5504;47.312;11.060;2023-04-03T06:22:00;6.20;85.80
10903;DHT22;5504;47.312;11.060;2023-04-03T06:24:26;6.10;86.40
10903;DHT22;5504;47.312;11.060;2023-04-03T06:26:52;6.20;86.50
10903;DHT22;5504;47.312;11.060;2023-04-03T06:29:21;6.20;86.70
10903;DHT22;5504;47.312;11.060;2023-04-03T06:31:48;6.00;86.50
10903;DHT22;5504;47.312;11.060;2023-04-03T06:34:14;6.20;88.00
10903;DHT22;5504;47.312;11.060;2023-04-03T06:36:41;6.30;87.00
10903;DHT22;5504;47.312;11.060;2023-04-03T06:39:08;6.40;86.20
10903;DHT22;5504;47.312;11.060;2023-04-03T06:41:34;6.50;85.80
10903;DHT22;5504;47.312;11.060;2023-04-03T06:44:00;6.70;85.90
10903;DHT22;5504;47.312;11.060;2023-04-03T06:46:26;6.80;85.60
10903;DHT22;5504;47.312;11.060;2023-04-03T06:48:52;7.00;85.70
10903;DHT22;5504;47.312;11.060;2023-04-03T06:51:26;7.10;85.50
10903;DHT22;5504;47.312;11.060;2023-04-03T06:53:54;7.00;85.40
10903;DHT22;5504;47.312;11.060;2023-04-03T06:56:21;7.10;86.00
10903;DHT22;5504;47.312;11.060;2023-04-03T06:58:47;7.20;85.70
10903;DHT22;5504;47.312;11.060;2023-04-03T07:01:15;7.20;85.90
10903;DHT22;5504;47.312;11.060;2023-04-03T07:03:42;7.30;85.80
10903;DHT22;5504;47.312;11.060;2023-04-03T07:06:11;7.40;83.30
10903;DHT22;5504;47.312;11.060;2023-04-03T07:08:37;7.30;84.00
10903;DHT22;5504;47.312;11.060;2023-04-03T07:11:03;7.50;83.70
10903;DHT22;5504;47.312;11.060;2023-04-03T07:13:29;7.20;84.70
10903;DHT22;5504;47.312;11.060;2023-04-03T07:15:54;7.30;84.50
10903;DHT22;5504;47.312;11.060;2023-04-03T07:18:20;7.40;84.40
10903;DHT22;5504;47.312;11.060;2023-04-03T07:20:47;7.40;84.30
10903;DHT22;5504;47.312;11.060;2023-04-03T07:23:12;7.60;83.70
10903;DHT22;5504;47.312;11.060;2023-04-03T07:25:43;7.70;83.00
10903;DHT22;5504;47.312;11.060;2023-04-03T07:28:09;7.40;80.50
10903;DHT22;5504;47.312;11.060;2023-04-03T07:30:41;7.50;82.00
10903;DHT22;5504;47.312;11.060;2023-04-03T07:33:07;7.60;82.20
10903;DHT22;5504;47.312;11.060;2023-04-03T07:35:33;7.70;83.00
10903;DHT22;5504;47.312;11.060;2023-04-03T07:37:59;7.60;83.20
10903;DHT22;5504;47.312;11.060;2023-04-03T07:40:25;7.70;83.50
10903;DHT22;5504;47.312;11.060;2023-04-03T07:42:50;8.00;81.90
10903;DHT22;5504;47.312;11.060;2023-04-03T07:45:16;8.10;81.20
10903;DHT22;5504;47.312;11.060;2023-04-03T07:47:42;8.20;81.40
10903;DHT22;5504;47.312;11.060;2023-04-03T07:50:08;8.30;80.00
10903;DHT22;5504;47.312;11.060;2023-04-03T07:52:34;8.20;78.50
10903;DHT22;5504;47.312;11.060;2023-04-03T07:54:59;8.20;79.30
10903;DHT22;5504;47.312;11.060;2023-04-03T07:57:25;7.90;81.30
10903;DHT22;5504;47.312;11.060;2023-04-03T07:59:51;7.80;78.70
10903;DHT22;5504;47.312;11.060;2023-04-03T08:02:17;8.10;80.20
10903;DHT22;5504;47.312;11.060;2023-04-03T08:04:42;8.30;79.90
10903;DHT22;5504;47.312;11.060;2023-04-03T08:07:08;8.20;78.60
10903;DHT22;5504;47.312;11.060;2023-04-03T08:09:33;8.50;79.30
10903;DHT22;5504;47.312;11.060;2023-04-03T08:11:59;8.70;77.00
10903;DHT22;5504;47.312;11.060;2023-04-03T08:14:25;8.80;75.80
10903;DHT22;5504;47.312;11.060;2023-04-03T08:16:51;8.10;76.00
10903;DHT22;5504;47.312;11.060;2023-04-03T08:19:17;8.10;75.40
10903;DHT22;5504;47.312;11.060;2023-04-03T08:21:44;8.20;76.70
10903;DHT22;5504;47.312;11.060;2023-04-03T08:24:10;8.30;76.10
10903;DHT22;5504;47.312;11.060;2023-04-03T08:26:37;8.30;74.60
10903;DHT22;5504;47.312;11.060;2023-04-03T08:29:03;8.40;77.60
10903;DHT22;5504;47.312;11.060;2023-04-03T08:31:29;8.60;78.60
10903;DHT22;5504;47.312;11.060;2023-04-03T08:33:57;8.70;79.50
10903;DHT22;5504;47.312;11.060;2023-04-03T08:36:26;9.10;80.20
10903;DHT22;5504;47.312;11.060;2023-04-03T08:38:53;9.60;76.90
10903;DHT22;5504;47.312;11.060;2023-04-03T08:41:39;9.90;77.30
10903;DHT22;5504;47.312;11.060;2023-04-03T08:44:44;10.00;76.10
10903;DHT22;5504;47.312;11.060;2023-04-03T08:49:42;10.50;69.60
10903;DHT22;5504;47.312;11.060;2023-04-03T08:52:15;9.90;68.30
10903;DHT22;5504;47.312;11.060;2023-04-03T08:54:55;10.40;69.20
10903;DHT22;5504;47.312;11.060;2023-04-03T08:57:38;9.90;65.30
10903;DHT22;5504;47.312;11.060;2023-04-03T09:00:18;9.00;66.60
10903;DHT22;5504;47.312;11.060;2023-04-03T09:02:53;9.40;67.20
10903;DHT22;5504;47.312;11.060;2023-04-03T09:05:24;9.70;69.90
10903;DHT22;5504;47.312;11.060;2023-04-03T09:08:26;9.90;68.20
10903;DHT22;5504;47.312;11.060;2023-04-03T09:16:58;9.60;66.50
10903;DHT22;5504;47.312;11.060;2023-04-03T09:22:19;9.90;63.70
10903;DHT22;5504;47.312;11.060;2023-04-03T09:24:48;9.20;66.30
10903;DHT22;5504;47.312;11.060;2023-04-03T09:27:15;9.30;67.50
10903;DHT22;5504;47.312;11.060;2023-04-03T09:29:43;9.40;66.00
10903;DHT22;5504;47.312;11.060;2023-04-03T09:32:37;8.70;66.90
10903;DHT22;5504;47.312;11.060;2023-04-03T09:37:58;8.60;67.00
10903;DHT22;5504;47.312;11.060;2023-04-03T09:42:52;8.60;67.90
10903;DHT22;5504;47.312;11.060;2023-04-03T09:45:34;8.70;65.30
10903;DHT22;5504;47.312;11.060;2023-04-03T09:53:38;10.30;63.70
10903;DHT22;5504;47.312;11.060;2023-04-03T09:58:47;11.00;63.90
10903;DHT22;5504;47.312;11.060;2023-04-03T10:01:38;11.60;62.20
10903;DHT22;5504;47.312;11.060;2023-04-03T10:06:45;10.80;62.80
10903;DHT22;5504;47.312;11.060;2023-04-03T10:09:30;10.90;59.70
10903;DHT22;5504;47.312;11.060;2023-04-03T10:20:39;10.90;58.30
10903;DHT22;5504;47.312;11.060;2023-04-03T10:31:44;12.40;57.60
10903;DHT22;5504;47.312;11.060;2023-04-03T10:57:17;14.00;55.70
10903;DHT22;5504;47.312;11.060;2023-04-03T10:59:50;13.40;54.50
10903;DHT22;5504;47.312;11.060;2023-04-03T11:04:53;11.90;56.30
10903;DHT22;5504;47.312;11.060;2023-04-03T11:07:23;11.80;56.70
10903;DHT22;5504;47.312;11.060;2023-04-03T11:09:55;12.00;58.50
10903;DHT22;5504;47.312;11.060;2023-04-03T11:15:12;12.20;57.10
10903;DHT22;5504;47.312;11.060;2023-04-03T11:17:46;12.20;57.50
10903;DHT22;5504;47.312;11.060;2023-04-03T11:20:23;11.90;57.50
10903;DHT22;5504;47.312;11.060;2023-04-03T11:25:38;11.80;56.50
10903;DHT22;5504;47.312;11.060;2023-04-03T11:28:12;11.30;57.80
10903;DHT22;5504;47.312;11.060;2023-04-03T11:33:44;11.80;56.80
10903;DHT22;5504;47.312;11.060;2023-04-03T11:36:47;10.50;55.60
10903;DHT22;5504;47.312;11.060;2023-04-03T11:39:31;10.70;58.20
10903;DHT22;5504;47.312;11.060;2023-04-03T11:42:32;11.10;59.00
10903;DHT22;5504;47.312;11.060;2023-04-03T11:45:38;10.80;55.10
10903;DHT22;5504;47.312;11.060;2023-04-03T11:50:55;11.30;56.90
10903;DHT22;5504;47.312;11.060;2023-04-03T11:55:55;11.60;53.10
10903;DHT22;5504;47.312;11.060;2023-04-03T11:58:23;11.60;50.50
10903;DHT22;5504;47.312;11.060;2023-04-03T12:24:24;12.80;54.90
10903;DHT22;5504;47.312;11.060;2023-04-03T12:40:21;13.20;56.40
10903;DHT22;5504;47.312;11.060;2023-04-03T12:45:41;11.00;56.10
10903;DHT22;5504;47.312;11.060;2023-04-03T12:48:17;11.30;57.30
10903;DHT22;5504;47.312;11.060;2023-04-03T12:50:46;11.00;56.80
10903;DHT22;5504;47.312;11.060;2023-04-03T12:53:18;10.20;55.60
10903;DHT22;5504;47.312;11.060;2023-04-03T12:55:45;10.40;57.70
10903;DHT22;5504;47.312;11.060;2023-04-03T12:58:21;11.60;55.90
10903;DHT22;5504;47.312;11.060;2023-04-03T13:01:02;10.80;55.10
10903;DHT22;5504;47.312;11.060;2023-04-03T13:03:28;11.40;58.20
10903;DHT22;5504;47.312;11.060;2023-04-03T13:05:58;12.30;55.80
10903;DHT22;5504;47.312;11.060;2023-04-03T13:08:24;12.30;52.10
10903;DHT22;5504;47.312;11.060;2023-04-03T13:11:06;10.70;55.00
10903;DHT22;5504;47.312;11.060;2023-04-03T13:13:33;12.30;56.90
10903;DHT22;5504;47.312;11.060;2023-04-03T13:15:59;11.40;53.60
10903;DHT22;5504;47.312;11.060;2023-04-03T13:18:36;11.60;56.70
10903;DHT22;5504;47.312;11.060;2023-04-03T13:21:16;11.60;55.10
10903;DHT22;5504;47.312;11.060;2023-04-03T13:23:45;10.70;56.10
10903;DHT22;5504;47.312;11.060;2023-04-03T13:26:12;11.00;56.70
10903;DHT22;5504;47.312;11.060;2023-04-03T13:28:41;10.40;55.50
10903;DHT22;5504;47.312;11.060;2023-04-03T13:31:22;10.30;57.00
10903;DHT22;5504;47.312;11.060;2023-04-03T13:34:12;10.20;57.60
10903;DHT22;5504;47.312;11.060;2023-04-03T13:36:44;8.30;56.40
10903;DHT22;5504;47.312;11.060;2023-04-03T13:41:38;8.60;59.00
10903;DHT22;5504;47.312;11.060;2023-04-03T13:46:53;9.30;58.10
10903;DHT22;5504;47.312;11.060;2023-04-03T13:49:34;9.00;59.10
10903;DHT22;5504;47.312;11.060;2023-04-03T13:52:02;8.70;59.80
10903;DHT22;5504;47.312;11.060;2023-04-03T13:54:38;9.30;59.80
10903;DHT22;5504;47.312;11.060;2023-04-03T13:57:15;10.50;59.60
10903;DHT22;5504;47.312;11.060;2023-04-03T13:59:42;11.00;57.00
10903;DHT22;5504;47.312;11.060;2023-04-03T14:07:02;11.70;53.80
10903;DHT22;5504;47.312;11.060;2023-04-03T14:09:28;11.80;54.00
10903;DHT22;5504;47.312;11.060;2023-04-03T14:11:58;12.10;55.30
10903;DHT22;5504;47.312;11.060;2023-04-03T14:14:31;12.30;52.60
10903;DHT22;5504;47.312;11.060;2023-04-03T14:17:00;12.10;53.50
10903;DHT22;5504;47.312;11.060;2023-04-03T14:19:29;11.60;51.80
10903;DHT22;5504;47.312;11.060;2023-04-03T14:21:56;10.20;52.60
10903;DHT22;5504;47.312;11.060;2023-04-03T14:24:23;9.20;55.00
10903;DHT22;5504;47.312;11.060;2023-04-03T14:26:51;9.40;56.30
10903;DHT22;5504;47.312;11.060;2023-04-03T14:29:18;9.30;55.70
10903;DHT22;5504;47.312;11.060;2023-04-03T14:31:46;9.60;57.50
10903;DHT22;5504;47.312;11.060;2023-04-03T14:34:12;9.10;55.80
10903;DHT22;5504;47.312;11.060;2023-04-03T14:36:40;8.80;56.70
10903;DHT22;5504;47.312;11.060;2023-04-03T14:39:10;8.40;57.40
10903;DHT22;5504;47.312;11.060;2023-04-03T14:41:36;8.50;59.30
10903;DHT22;5504;47.312;11.060;2023-04-03T14:44:02;9.20;59.90
10903;DHT22;5504;47.312;11.060;2023-04-03T14:46:34;9.20;57.10
10903;DHT22;5504;47.312;11.060;2023-04-03T14:49:00;9.70;57.60
10903;DHT22;5504;47.312;11.060;2023-04-03T14:51:26;8.00;56.60
10903;DHT22;5504;47.312;11.060;2023-04-03T14:53:52;7.40;59.70
10903;DHT22;5504;47.312;11.060;2023-04-03T14:56:27;8.10;60.50
10903;DHT22;5504;47.312;11.060;2023-04-03T14:58:59;8.40;59.30
10903;DHT22;5504;47.312;11.060;2023-04-03T15:01:26;7.40;59.70
10903;DHT22;5504;47.312;11.060;2023-04-03T15:03:52;7.60;61.00
10903;DHT22;5504;47.312;11.060;2023-04-03T15:06:17;8.20;60.10
10903;DHT22;5504;47.312;11.060;2023-04-03T15:08:44;7.90;59.40
10903;DHT22;5504;47.312;11.060;2023-04-03T15:11:11;8.30;60.10
10903;DHT22;5504;47.312;11.060;2023-04-03T15:13:37;8.90;59.00
10903;DHT22;5504;47.312;11.060;2023-04-03T15:16:04;8.90;59.30
10903;DHT22;5504;47.312;11.060;2023-04-03T15:18:35;8.90;58.70
10903;DHT22;5504;47.312;11.060;2023-04-03T15:21:03;7.10;59.50
10903;DHT22;5504;47.312;11.060;2023-04-03T15:23:28;7.50;60.20
10903;DHT22;5504;47.312;11.060;2023-04-03T15:25:55;7.90;58.80
10903;DHT22;5504;47.312;11.060;2023-04-03T15:30:50;7.90;62.50
10903;DHT22;5504;47.312;11.060;2023-04-03T15:33:16;8.10;62.30
10903;DHT22;5504;47.312;11.060;2023-04-03T15:35:42;8.50;63.10
10903;DHT22;5504;47.312;11.060;2023-04-03T15:38:08;8.30;58.90
10903;DHT22;5504;47.312;11.060;2023-04-03T15:40:34;7.80;58.50
10903;DHT22;5504;47.312;11.060;2023-04-03T15:43:00;7.50;59.50
10903;DHT22;5504;47.312;11.060;2023-04-03T15:45:28;7.80;59.30
10903;DHT22;5504;47.312;11.060;2023-04-03T15:47:55;7.80;58.80
10903;DHT22;5504;47.312;11.060;2023-04-03T15:50:21;8.10;59.80
10903;DHT22;5504;47.312;11.060;2023-04-03T15:52:48;8.30;60.10
10903;DHT22;5504;47.312;11.060;2023-04-03T15:55:23;8.60;59.30
10903;DHT22;5504;47.312;11.060;2023-04-03T15:57:48;8.30;58.80
10903;DHT22;5504;47.312;11.060;2023-04-03T16:00:14;8.10;59.30
10903;DHT22;5504;47.312;11.060;2023-04-03T16:02:41;8.10;59.20
10903;DHT22;5504;47.312;11.060;2023-04-03T16:05:09;8.00;59.60
10903;DHT22;5504;47.312;11.060;2023-04-03T16:07:37;8.10;59.20
10903;DHT22;5504;47.312;11.060;2023-04-03T16:10:04;7.70;59.20
10903;DHT22;5504;47.312;11.060;2023-04-03T16:12:30;7.20;59.40
10903;DHT22;5504;47.312;11.060;2023-04-03T16:14:56;7.20;62.10
10903;DHT22;5504;47.312;11.060;2023-04-03T16:17:22;7.20;61.00
10903;DHT22;5504;47.312;11.060;2023-04-03T16:19:48;7.40;60.80
10903;DHT22;5504;47.312;11.060;2023-04-03T16:22:14;7.30;61.20
10903;DHT22;5504;47.312;11.060;2023-04-03T16:24:40;7.20;62.50
10903;DHT22;5504;47.312;11.060;2023-04-03T16:27:06;7.30;61.80
10903;DHT22;5504;47.312;11.060;2023-04-03T16:29:31;7.20;61.40
10903;DHT22;5504;47.312;11.060;2023-04-03T16:31:57;7.00;59.40
10903;DHT22;5504;47.312;11.060;2023-04-03T16:34:24;6.10;60.00
10903;DHT22;5504;47.312;11.060;2023-04-03T16:36:51;5.60;63.60
10903;DHT22;5504;47.312;11.060;2023-04-03T16:39:18;5.70;63.30
10903;DHT22;5504;47.312;11.060;2023-04-03T16:41:44;6.30;64.10
10903;DHT22;5504;47.312;11.060;2023-04-03T16:44:10;5.30;61.70
10903;DHT22;5504;47.312;11.060;2023-04-03T16:46:36;5.60;63.20
10903;DHT22;5504;47.312;11.060;2023-04-03T16:49:03;5.80;62.00
10903;DHT22;5504;47.312;11.060;2023-04-03T16:51:28;5.60;63.00
10903;DHT22;5504;47.312;11.060;2023-04-03T16:53:55;5.50;62.80
10903;DHT22;5504;47.312;11.060;2023-04-03T16:56:21;5.40;62.00
10903;DHT22;5504;47.312;11.060;2023-04-03T16:58:47;4.90;62.90
10903;DHT22;5504;47.312;11.060;2023-04-03T17:01:15;4.90;62.90
10903;DHT22;5504;47.312;11.060;2023-04-03T17:03:42;5.00;62.00
10903;DHT22;5504;47.312;11.060;2023-04-03T17:06:07;5.00;61.90
10903;DHT22;5504;47.312;11.060;2023-04-03T17:08:40;4.90;62.30
10903;DHT22;5504;47.312;11.060;2023-04-03T17:11:05;5.50;64.10
10903;DHT22;5504;47.312;11.060;2023-04-03T17:13:31;5.30;62.60
10903;DHT22;5504;47.312;11.060;2023-04-03T17:15:59;5.50;63.20
10903;DHT22;5504;47.312;11.060;2023-04-03T17:18:26;5.80;61.60
10903;DHT22;5504;47.312;11.060;2023-04-03T17:20:55;6.00;61.50
10903;DHT22;5504;47.312;11.060;2023-04-03T17:23:23;6.30;62.90
10903;DHT22;5504;47.312;11.060;2023-04-03T17:25:49;6.30;63.00
10903;DHT22;5504;47.312;11.060;2023-04-03T17:28:15;5.90;60.10
10903;DHT22;5504;47.312;11.060;2023-04-03T17:30:40;5.70;59.30
10903;DHT22;5504;47.312;11.060;2023-04-03T17:33:06;5.70;60.00
10903;DHT22;5504;47.312;11.060;2023-04-03T17:35:32;5.40;61.60
10903;DHT22;5504;47.312;11.060;2023-04-03T17:37:57;5.30;65.10
10903;DHT22;5504;47.312;11.060;2023-04-03T17:40:23;5.20;65.30
10903;DHT22;5504;47.312;11.060;2023-04-03T17:42:49;5.30;65.10
10903;DHT22;5504;47.312;11.060;2023-04-03T17:45:15;5.50;62.50
10903;DHT22;5504;47.312;11.060;2023-04-03T17:47:40;5.20;61.80
10903;DHT22;5504;47.312;11.060;2023-04-03T17:50:06;5.10;62.00
10903;DHT22;5504;47.312;11.060;2023-04-03T17:52:32;4.70;60.60
10903;DHT22;5504;47.312;11.060;2023-04-03T17:54:58;4.60;62.90
10903;DHT22;5504;47.312;11.060;2023-04-03T17:57:24;4.50;66.90
10903;DHT22;5504;47.312;11.060;2023-04-03T17:59:49;4.60;65.90
10903;DHT22;5504;47.312;11.060;2023-04-03T18:02:18;4.90;68.00
10903;DHT22;5504;47.312;11.060;2023-04-03T18:04:44;4.10;69.50
10903;DHT22;5504;47.312;11.060;2023-04-03T18:07:10;4.10;68.80
10903;DHT22;5504;47.312;11.060;2023-04-03T18:09:36;4.10;69.10
10903;DHT22;5504;47.312;11.060;2023-04-03T18:12:06;4.00;70.40